Language: 


Des rapports , des résumés tant et plus, au choix de chacun....


Données Historiques de Météogheer
Journalier Rapport pour Décembre 27, 2017 Unitée:  Métrique    Impériale   Les deux
Suivant Jour »
Journalier Hebdomadaire Mensuel Annuel Sur mesure
  Max: Min: Moyenne:
Température: 7.8 °C 0.0 °C 5.9 °C
Point de rosée: 7.0 °C 2.0 °C 4.8 °C
Humidité: 98% 0% 91%
Vent: 39.6km/h 0.0km/h 13.1km/h
Rafales: 54.4km/h - -
Vent- - WSW
Pression: 999.9 hPa 0.0 hPa -
Pluie: 8.6 mm    
Historical Graphs
 
 
Données tabulaires pour Décembre 27, 2017
Heure Température Point de rosée Pression Vent Vent Rafales Humidité Pluie Taux (Horaire) Conditions
00:04 7.2 °C 6.0 °C 999.9 hPa WSW 19.5 km/h 27.0 km/h 91% 0.0 mm
00:05 7.2 °C 6.0 °C 999.9 hPa WSW 19.5 km/h 27.0 km/h 91% 0.0 mm
00:10 7.8 °C 5.0 °C 998.9 hPa SW 20.9 km/h 24.8 km/h 81% 0.0 mm
00:15 7.8 °C 5.0 °C 998.9 hPa SW 20.9 km/h 24.8 km/h 81% 0.0 mm
00:16 7.2 °C 6.0 °C 999.9 hPa WSW 19.5 km/h 27.0 km/h 91% 0.0 mm
00:17 7.8 °C 5.0 °C 998.9 hPa SW 20.9 km/h 24.8 km/h 81% 0.0 mm
00:21 7.8 °C 5.0 °C 998.9 hPa SW 20.9 km/h 24.8 km/h 81% 0.0 mm
00:22 7.8 °C 5.0 °C 998.9 hPa SW 20.9 km/h 24.8 km/h 81% 0.0 mm
00:27 7.8 °C 5.0 °C 998.9 hPa SW 20.9 km/h 24.8 km/h 81% 0.0 mm
00:30 7.2 °C 6.0 °C 999.9 hPa WSW 19.5 km/h 27.0 km/h 91% 0.0 mm
00:34 7.8 °C 5.0 °C 998.9 hPa SW 20.9 km/h 24.8 km/h 81% 0.0 mm
00:39 7.2 °C 6.0 °C 999.9 hPa WSW 19.5 km/h 27.0 km/h 91% 0.0 mm
00:40 7.8 °C 5.0 °C 998.9 hPa SW 20.9 km/h 24.8 km/h 81% 0.0 mm
00:45 7.8 °C 5.0 °C 998.9 hPa SW 20.9 km/h 24.8 km/h 81% 0.0 mm
00:46 7.8 °C 5.0 °C 998.9 hPa SW 20.9 km/h 24.8 km/h 81% 0.0 mm
00:48 7.8 °C 5.0 °C 998.9 hPa SW 20.9 km/h 24.8 km/h 81% 0.0 mm
00:53 7.2 °C 6.0 °C 999.9 hPa WSW 19.5 km/h 27.0 km/h 91% 0.0 mm
00:58 7.8 °C 5.0 °C 998.9 hPa SW 20.9 km/h 24.8 km/h 81% 0.0 mm
01:03 7.8 °C 5.0 °C 998.9 hPa SW 20.9 km/h 24.8 km/h 81% 0.0 mm
01:04 7.2 °C 6.0 °C 999.9 hPa WSW 19.5 km/h 27.0 km/h 91% 0.0 mm
01:05 7.2 °C 6.0 °C 999.9 hPa WSW 19.5 km/h 27.0 km/h 91% 0.0 mm
01:10 7.8 °C 5.0 °C 998.9 hPa SW 20.9 km/h 24.8 km/h 81% 0.0 mm
01:15 7.2 °C 6.0 °C 999.9 hPa WSW 19.5 km/h 27.0 km/h 91% 0.0 mm
01:16 7.8 °C 5.0 °C 998.9 hPa SW 20.9 km/h 24.8 km/h 81% 0.0 mm
01:21 7.2 °C 6.0 °C 999.9 hPa WSW 19.5 km/h 27.0 km/h 91% 0.0 mm
01:26 7.8 °C 5.0 °C 998.9 hPa SW 20.9 km/h 24.8 km/h 81% 0.0 mm
01:28 7.8 °C 5.0 °C 998.9 hPa SW 20.9 km/h 24.8 km/h 81% 0.0 mm
01:31 7.2 °C 6.0 °C 999.9 hPa WSW 19.5 km/h 27.0 km/h 91% 0.0 mm
01:33 7.2 °C 6.0 °C 999.9 hPa WSW 19.5 km/h 27.0 km/h 91% 0.0 mm
01:34 7.8 °C 5.0 °C 998.9 hPa SW 20.9 km/h 24.8 km/h 81% 0.0 mm
01:38 7.8 °C 5.0 °C 998.9 hPa SW 20.9 km/h 24.8 km/h 81% 0.0 mm
01:40 7.8 °C 5.0 °C 998.9 hPa SW 20.9 km/h 24.8 km/h 81% 0.0 mm
01:43 7.8 °C 5.0 °C 998.9 hPa SW 20.9 km/h 24.8 km/h 81% 0.0 mm
01:47 7.8 °C 5.0 °C 998.9 hPa SW 20.9 km/h 24.8 km/h 81% 0.0 mm
01:49 7.8 °C 5.0 °C 998.9 hPa SW 20.9 km/h 24.8 km/h 81% 0.0 mm
01:54 7.2 °C 6.0 °C 999.9 hPa WSW 19.5 km/h 27.0 km/h 91% 0.0 mm
01:55 7.8 °C 5.0 °C 998.9 hPa SW 20.9 km/h 24.8 km/h 81% 0.0 mm
02:00 7.8 °C 5.0 °C 998.9 hPa SW 20.9 km/h 24.8 km/h 81% 0.0 mm
02:05 7.8 °C 5.0 °C 998.9 hPa SW 20.9 km/h 24.8 km/h 81% 0.0 mm
02:07 7.8 °C 5.0 °C 998.9 hPa SW 20.9 km/h 24.8 km/h 81% 0.0 mm
02:11 7.8 °C 5.0 °C 998.9 hPa SW 20.9 km/h 24.8 km/h 81% 0.0 mm
02:16 7.8 °C 5.0 °C 998.9 hPa SW 20.9 km/h 24.8 km/h 81% 0.0 mm
02:21 7.8 °C 5.0 °C 998.9 hPa SW 20.9 km/h 24.8 km/h 81% 0.0 mm
02:24 7.2 °C 6.0 °C 999.9 hPa WSW 19.5 km/h 27.0 km/h 91% 0.0 mm
02:26 7.8 °C 5.0 °C 998.9 hPa SW 20.9 km/h 24.8 km/h 81% 0.0 mm
02:31 7.2 °C 6.0 °C 999.9 hPa WSW 19.5 km/h 27.0 km/h 91% 0.0 mm
02:34 7.8 °C 5.0 °C 998.9 hPa SW 20.9 km/h 24.8 km/h 81% 0.0 mm
02:37 7.8 °C 5.0 °C 998.9 hPa SW 20.9 km/h 24.8 km/h 81% 0.0 mm
02:39 7.2 °C 6.0 °C 999.9 hPa WSW 19.5 km/h 27.0 km/h 91% 0.0 mm
02:42 7.2 °C 6.0 °C 999.9 hPa WSW 19.5 km/h 27.0 km/h 91% 0.0 mm
02:47 7.2 °C 6.0 °C 999.9 hPa WSW 19.5 km/h 27.0 km/h 91% 0.0 mm
02:49 7.2 °C 6.0 °C 999.9 hPa WSW 19.5 km/h 27.0 km/h 91% 0.0 mm
02:50 7.8 °C 5.0 °C 998.9 hPa SW 20.9 km/h 24.8 km/h 81% 0.0 mm
02:54 7.2 °C 6.0 °C 999.9 hPa WSW 19.5 km/h 27.0 km/h 91% 0.0 mm
02:55 7.2 °C 6.0 °C 999.9 hPa WSW 19.5 km/h 27.0 km/h 91% 0.0 mm
08:37 6.5 °C 7.0 °C 0.0 hPa WSW 9.3 km/h 9.3 km/h 98% 0.0 mm
08:39 6.5 °C 7.0 °C 978.9 hPa SSW 7.9 km/h 9.3 km/h 98% 0.0 mm
08:42 6.5 °C 7.0 °C 978.9 hPa SSW 7.9 km/h 9.3 km/h 98% 0.0 mm
08:44 6.3 °C 6.0 °C 978.9 hPa Calm   9.3 km/h 98% 0.0 mm
08:49 6.5 °C 7.0 °C 978.9 hPa SSW 7.9 km/h 9.3 km/h 98% 0.0 mm
08:54 6.1 °C 6.0 °C 978.9 hPa SSW 12.2 km/h 12.2 km/h 98% 0.0 mm
08:59 6.1 °C 6.0 °C 978.9 hPa SSW 9.0 km/h 12.2 km/h 98% 0.0 mm
09:02 6.1 °C 6.0 °C 978.9 hPa SSW 7.6 km/h 12.2 km/h 98% 0.0 mm
09:08 0.0 °C 6.0 °C 978.9 hPa SSW 5.5 km/h 9.0 km/h 0% 0.0 mm
09:12 6.0 °C 6.0 °C 979.9 hPa SSW 4.3 km/h 7.9 km/h 98% 0.0 mm
09:17 6.0 °C 6.0 °C 979.9 hPa SW 6.1 km/h 7.9 km/h 98% 0.0 mm
09:18 6.0 °C 6.0 °C 979.9 hPa SSW 5.8 km/h 7.9 km/h 98% 0.0 mm
09:23 6.0 °C 6.0 °C 979.9 hPa SSW 6.1 km/h 9.7 km/h 98% 0.0 mm
09:26 6.0 °C 6.0 °C 979.9 hPa Calm   9.7 km/h 98% 0.0 mm
09:31 6.0 °C 6.0 °C 979.9 hPa Calm   9.7 km/h 98% 0.0 mm
09:33 6.0 °C 6.0 °C 979.9 hPa Calm   9.7 km/h 98% 0.0 mm
09:38 6.0 °C 6.0 °C 979.9 hPa SSW 4.7 km/h 9.0 km/h 98% 0.0 mm
09:39 6.0 °C 6.0 °C 979.9 hPa Calm   9.0 km/h 98% 0.0 mm
09:44 6.0 °C 6.0 °C 979.9 hPa South 7.9 km/h 9.0 km/h 98% 0.0 mm
09:45 6.0 °C 6.0 °C 979.9 hPa Calm   9.0 km/h 98% 0.0 mm
09:50 6.1 °C 6.0 °C 979.9 hPa SSW 5.5 km/h 7.9 km/h 98% 0.0 mm
09:52 6.1 °C 6.0 °C 979.9 hPa South 9.0 km/h 9.0 km/h 98% 0.0 mm
09:57 6.3 °C 6.0 °C 980.9 hPa SSW 5.5 km/h 11.6 km/h 98% 0.0 mm
10:01 6.5 °C 7.0 °C 980.9 hPa South 5.8 km/h 11.6 km/h 98% 0.0 mm
10:03 6.6 °C 7.0 °C 980.9 hPa SSW 6.9 km/h 11.6 km/h 98% 0.0 mm
10:06 6.7 °C 7.0 °C 980.9 hPa SSW 7.9 km/h 13.0 km/h 98% 0.0 mm
10:08 6.7 °C 7.0 °C 980.9 hPa SSW 6.1 km/h 13.0 km/h 98% 0.0 mm
10:13 6.7 °C 7.0 °C 980.9 hPa South 8.7 km/h 13.0 km/h 98% 0.0 mm
10:18 6.7 °C 7.0 °C 980.9 hPa SSW 6.4 km/h 13.0 km/h 98% 0.0 mm
10:23 6.7 °C 6.0 °C 980.9 hPa SSW 6.1 km/h 13.0 km/h 97% 0.0 mm
10:25 6.7 °C 6.0 °C 980.9 hPa Calm   10.1 km/h 97% 0.0 mm
10:30 6.7 °C 6.0 °C 980.9 hPa SW 11.6 km/h 11.6 km/h 97% 0.0 mm
10:35 6.7 °C 6.0 °C 980.9 hPa South 5.5 km/h 13.0 km/h 97% 0.0 mm
10:36 6.8 °C 6.0 °C 980.9 hPa SSW 6.4 km/h 13.0 km/h 96% 0.0 mm
10:41 6.9 °C 7.0 °C 980.9 hPa SW 8.7 km/h 16.3 km/h 96% 0.0 mm
10:46 7.3 °C 7.0 °C 980.9 hPa SSW 10.1 km/h 16.3 km/h 96% 0.0 mm
10:49 7.5 °C 7.0 °C 980.9 hPa SW 12.2 km/h 15.4 km/h 95% 0.0 mm
10:52 7.5 °C 7.0 °C 980.9 hPa WSW 13.0 km/h 15.4 km/h 95% 0.0 mm
10:55 7.5 °C 7.0 °C 980.9 hPa SSW 13.0 km/h 15.8 km/h 95% 0.0 mm
11:00 7.4 °C 6.0 °C 980.9 hPa SW 13.0 km/h 21.2 km/h 93% 0.0 mm
11:05 7.3 °C 6.0 °C 980.9 hPa South 9.0 km/h 21.2 km/h 91% 0.0 mm
11:08 7.3 °C 6.0 °C 980.9 hPa WSW 9.3 km/h 16.3 km/h 91% 0.0 mm
11:13 7.3 °C 6.0 °C 980.9 hPa SSW 10.5 km/h 15.1 km/h 91% 0.0 mm
11:16 7.5 °C 6.0 °C 980.9 hPa SSW 10.5 km/h 14.0 km/h 91% 0.0 mm
11:19 7.7 °C 6.0 °C 980.9 hPa SSW 11.9 km/h 19.8 km/h 90% 0.0 mm
11:23 7.8 °C 6.0 °C 980.9 hPa SSW 10.1 km/h 19.8 km/h 90% 0.0 mm
11:24 7.8 °C 6.0 °C 980.9 hPa SSW 10.1 km/h 19.8 km/h 90% 0.0 mm
11:29 7.8 °C 6.0 °C 980.9 hPa SW 16.3 km/h 19.5 km/h 88% 0.0 mm
11:31 7.7 °C 6.0 °C 980.9 hPa SSW 16.3 km/h 19.5 km/h 88% 0.0 mm
11:32 7.7 °C 6.0 °C 980.9 hPa SW 17.2 km/h 19.5 km/h 87% 0.0 mm
11:37 7.4 °C 5.0 °C 980.9 hPa SSW 14.0 km/h 17.2 km/h 86% 0.0 mm
11:38 7.4 °C 5.0 °C 980.9 hPa WSW 11.9 km/h 17.2 km/h 86% 0.0 mm
11:43 7.3 °C 5.0 °C 980.9 hPa SW 7.9 km/h 19.5 km/h 86% 0.0 mm
11:48 7.5 °C 6.0 °C 980.9 hPa SSW 6.1 km/h 19.5 km/h 87% 0.0 mm
11:49 7.5 °C 6.0 °C 980.9 hPa SSW 6.4 km/h 19.5 km/h 87% 0.0 mm
11:54 7.6 °C 6.0 °C 980.9 hPa Calm   13.0 km/h 87% 0.0 mm
11:59 7.6 °C 6.0 °C 980.9 hPa SSW 4.7 km/h 12.2 km/h 87% 0.0 mm
12:00 7.6 °C 6.0 °C 980.9 hPa SSW 6.9 km/h 12.2 km/h 87% 0.0 mm
12:05 7.5 °C 6.0 °C 980.9 hPa SW 12.6 km/h 13.0 km/h 87% 0.0 mm
12:07 7.5 °C 6.0 °C 980.9 hPa SSW 9.3 km/h 13.7 km/h 87% 0.0 mm
12:08 7.4 °C 6.0 °C 980.9 hPa SSW 7.6 km/h 13.7 km/h 87% 0.0 mm
12:13 7.4 °C 6.0 °C 980.9 hPa SSW 9.3 km/h 13.7 km/h 87% 0.0 mm
12:14 7.3 °C 6.0 °C 980.9 hPa SSW 9.0 km/h 13.7 km/h 87% 0.0 mm
12:19 7.3 °C 5.0 °C 980.9 hPa SW 12.2 km/h 16.3 km/h 86% 0.0 mm
12:20 7.3 °C 5.0 °C 980.9 hPa South 8.7 km/h 16.3 km/h 86% 0.0 mm
12:25 7.2 °C 5.0 °C 980.9 hPa SSW 9.7 km/h 16.3 km/h 86% 0.0 mm
12:26 7.2 °C 5.0 °C 980.9 hPa SSW 10.5 km/h 16.3 km/h 86% 0.0 mm
12:31 7.2 °C 6.0 °C 980.9 hPa South 8.7 km/h 15.8 km/h 87% 0.0 mm
12:32 7.2 °C 6.0 °C 980.9 hPa SSW 9.0 km/h 15.8 km/h 87% 0.0 mm
12:37 7.4 °C 6.0 °C 980.9 hPa South 1.8 km/h 14.0 km/h 87% 0.0 mm
12:38 7.4 °C 6.0 °C 980.9 hPa South 10.5 km/h 16.3 km/h 88% 0.0 mm
12:44 7.5 °C 6.0 °C 980.9 hPa South 12.2 km/h 16.3 km/h 88% 0.0 mm
12:45 7.5 °C 6.0 °C 980.9 hPa SSW 7.9 km/h 16.3 km/h 88% 0.0 mm
12:50 7.6 °C 6.0 °C 980.9 hPa South 9.3 km/h 13.7 km/h 88% 0.0 mm
12:55 7.6 °C 6.0 °C 980.9 hPa SW 10.5 km/h 15.8 km/h 87% 0.0 mm
12:56 7.6 °C 6.0 °C 980.9 hPa South 11.9 km/h 15.8 km/h 87% 0.0 mm
12:57 7.7 °C 6.0 °C 980.9 hPa SSW 9.0 km/h 15.8 km/h 87% 0.0 mm
13:02 7.7 °C 6.0 °C 980.9 hPa WSW 12.6 km/h 15.8 km/h 87% 0.0 mm
13:05 7.7 °C 6.0 °C 980.9 hPa SW 11.9 km/h 16.3 km/h 87% 0.0 mm
13:06 7.7 °C 6.0 °C 980.9 hPa SW 9.0 km/h 16.3 km/h 87% 0.0 mm
13:11 7.7 °C 6.0 °C 979.9 hPa SSW 11.9 km/h 16.3 km/h 87% 0.0 mm
13:16 7.5 °C 6.0 °C 979.9 hPa SSW 9.7 km/h 14.8 km/h 86% 0.0 mm
13:21 7.4 °C 5.0 °C 979.9 hPa SSW 10.1 km/h 14.8 km/h 86% 0.0 mm
13:22 7.4 °C 5.0 °C 979.9 hPa SSW 10.1 km/h 14.8 km/h 86% 0.0 mm
13:26 7.3 °C 5.0 °C 979.9 hPa SW 4.7 km/h 12.6 km/h 86% 0.0 mm
13:31 7.2 °C 5.0 °C 979.9 hPa SW 7.9 km/h 16.9 km/h 86% 0.0 mm
13:37 7.1 °C 5.0 °C 979.9 hPa SW 9.0 km/h 16.9 km/h 86% 0.0 mm
13:38 7.1 °C 5.0 °C 979.9 hPa SW 7.9 km/h 16.9 km/h 86% 0.0 mm
13:43 7.0 °C 5.0 °C 979.9 hPa WSW 6.4 km/h 12.2 km/h 87% 0.0 mm
13:44 7.0 °C 5.0 °C 979.9 hPa SW 9.0 km/h 12.2 km/h 87% 0.0 mm
13:48 6.9 °C 5.0 °C 979.9 hPa SW 6.4 km/h 12.6 km/h 87% 0.0 mm
13:53 6.8 °C 5.0 °C 979.9 hPa WSW 13.0 km/h 13.0 km/h 88% 0.0 mm
13:58 6.7 °C 5.0 °C 980.9 hPa WSW 8.7 km/h 13.0 km/h 89% 0.0 mm
14:00 6.7 °C 5.0 °C 980.9 hPa SW 6.9 km/h 13.0 km/h 89% 0.0 mm
14:05 6.7 °C 5.0 °C 980.9 hPa Calm   10.5 km/h 89% 0.0 mm
14:06 6.7 °C 5.0 °C 980.9 hPa Calm   10.5 km/h 90% 0.0 mm
14:11 6.6 °C 5.0 °C 980.9 hPa SW 9.3 km/h 11.6 km/h 90% 0.0 mm
14:14 6.6 °C 5.0 °C 980.9 hPa Calm   11.6 km/h 90% 0.0 mm
14:18 6.6 °C 6.0 °C 980.9 hPa SSW 1.4 km/h 11.6 km/h 91% 0.0 mm
14:19 6.6 °C 6.0 °C 980.9 hPa SSW 6.1 km/h 10.5 km/h 91% 0.0 mm
14:24 6.6 °C 6.0 °C 980.9 hPa SSW 6.9 km/h 10.5 km/h 92% 0.0 mm
14:26 6.7 °C 6.0 °C 980.9 hPa WSW 9.0 km/h 9.7 km/h 92% 0.0 mm
14:31 6.7 °C 6.0 °C 980.9 hPa SSW 6.1 km/h 10.5 km/h 92% 0.0 mm
14:33 6.7 °C 6.0 °C 980.9 hPa WSW 9.0 km/h 11.9 km/h 92% 0.0 mm
14:35 6.7 °C 6.0 °C 980.9 hPa SW 12.2 km/h 12.2 km/h 92% 0.0 mm
14:40 6.7 °C 6.0 °C 980.9 hPa WSW 7.6 km/h 12.2 km/h 93% 0.0 mm
14:41 6.7 °C 6.0 °C 980.9 hPa WSW 7.6 km/h 12.2 km/h 93% 0.0 mm
14:42 6.7 °C 6.0 °C 980.9 hPa South 6.9 km/h 12.2 km/h 93% 0.0 mm
14:47 6.6 °C 6.0 °C 980.9 hPa Calm   10.1 km/h 93% 0.0 mm
14:52 6.3 °C 5.0 °C 980.9 hPa SW 12.2 km/h 24.8 km/h 92% 0.3 mm
14:57 5.8 °C 5.0 °C 981.9 hPa West 5.5 km/h 24.8 km/h 92% 0.3 mm
14:58 5.8 °C 5.0 °C 981.9 hPa West 4.3 km/h 23.3 km/h 92% 0.3 mm
15:00 5.7 °C 5.0 °C 981.9 hPa West 6.1 km/h 21.2 km/h 92% 0.3 mm
15:05 5.6 °C 5.0 °C 981.9 hPa West 17.7 km/h 17.7 km/h 93% 0.3 mm
15:08 5.4 °C 5.0 °C 981.9 hPa West 9.0 km/h 17.7 km/h 93% 0.3 mm
15:13 5.4 °C 5.0 °C 981.9 hPa WSW 1.8 km/h 17.7 km/h 95% 0.3 mm
15:15 5.4 °C 5.0 °C 981.9 hPa NW 9.3 km/h 18.0 km/h 95% 0.3 mm
15:20 5.2 °C 5.0 °C 981.9 hPa West 16.3 km/h 19.1 km/h 95% 0.3 mm
15:22 5.2 °C 5.0 °C 981.9 hPa WNW 6.4 km/h 19.1 km/h 95% 0.3 mm
15:26 5.2 °C 5.0 °C 981.9 hPa NNW 8.7 km/h 19.1 km/h 95% 0.3 mm
15:31 5.3 °C 5.0 °C 981.9 hPa West 11.9 km/h 16.9 km/h 96% 0.8 mm
15:33 5.2 °C 5.0 °C 981.9 hPa NW 17.7 km/h 17.7 km/h 96% 0.8 mm
15:38 5.2 °C 5.0 °C 981.9 hPa West 9.7 km/h 17.7 km/h 96% 0.8 mm
15:43 5.2 °C 5.0 °C 981.9 hPa West 13.7 km/h 16.9 km/h 97% 0.8 mm
15:44 5.2 °C 5.0 °C 981.9 hPa WSW 16.9 km/h 16.9 km/h 97% 0.8 mm
15:46 5.2 °C 5.0 °C 981.9 hPa West 12.2 km/h 16.9 km/h 97% 0.8 mm
15:51 5.2 °C 5.0 °C 981.9 hPa NW 6.4 km/h 17.7 km/h 97% 0.8 mm
15:56 5.2 °C 5.0 °C 981.9 hPa NW 9.3 km/h 19.8 km/h 97% 0.3 mm
15:57 5.1 °C 5.0 °C 981.9 hPa West 6.4 km/h 19.8 km/h 98% 0.3 mm
16:02 5.1 °C 5.0 °C 981.9 hPa West 15.4 km/h 19.8 km/h 98% 0.3 mm
16:07 5.1 °C 5.0 °C 981.9 hPa WNW 10.1 km/h 19.8 km/h 98% 0.3 mm
16:08 5.0 °C 5.0 °C 981.9 hPa West 9.7 km/h 19.8 km/h 98% 0.3 mm
16:13 5.0 °C 5.0 °C 981.9 hPa WSW 14.3 km/h 23.0 km/h 98% 0.3 mm
16:17 5.0 °C 5.0 °C 981.9 hPa WSW 12.6 km/h 23.0 km/h 98% 0.3 mm
16:22 5.0 °C 5.0 °C 981.9 hPa WSW 12.6 km/h 23.0 km/h 98% 0.3 mm
16:23 5.0 °C 5.0 °C 981.9 hPa WSW 12.6 km/h 23.0 km/h 98% 0.3 mm
16:29 5.1 °C 5.0 °C 980.9 hPa WSW 24.8 km/h 24.8 km/h 98% 0.3 mm
16:32 5.1 °C 5.0 °C 980.9 hPa NW 8.7 km/h 24.8 km/h 98% 0.0 mm
16:34 5.1 °C 5.0 °C 980.9 hPa WNW 4.0 km/h 24.8 km/h 98% 0.0 mm
16:39 5.1 °C 5.0 °C 980.9 hPa WNW 11.1 km/h 14.0 km/h 98% 0.0 mm
16:41 5.1 °C 5.0 °C 981.9 hPa NNW 17.7 km/h 17.7 km/h 98% 0.0 mm
16:46 5.1 °C 5.0 °C 981.9 hPa NNW 16.6 km/h 19.8 km/h 98% 0.0 mm
16:47 5.1 °C 5.0 °C 981.9 hPa NNW 12.2 km/h 20.6 km/h 98% 0.0 mm
16:52 5.1 °C 5.0 °C 981.9 hPa NNW 20.6 km/h 23.0 km/h 98% 0.0 mm
16:53 5.1 °C 5.0 °C 981.9 hPa NNW 21.2 km/h 42.8 km/h 98% 0.0 mm
16:58 5.1 °C 5.0 °C 983.0 hPa North 13.0 km/h 42.8 km/h 98% 0.0 mm
16:59 5.1 °C 5.0 °C 983.0 hPa NNW 19.5 km/h 42.8 km/h 98% 0.0 mm
17:04 5.1 °C 5.0 °C 983.0 hPa NW 38.9 km/h 38.9 km/h 98% 0.0 mm
17:05 5.1 °C 5.0 °C 983.0 hPa North 25.6 km/h 38.9 km/h 98% 0.0 mm
17:10 5.1 °C 5.0 °C 983.0 hPa NE 10.5 km/h 38.9 km/h 98% 0.0 mm
17:11 5.1 °C 5.0 °C 984.0 hPa NNW 39.6 km/h 39.6 km/h 98% 0.3 mm
17:16 5.1 °C 5.0 °C 984.0 hPa NNW 20.1 km/h 39.6 km/h 98% 0.3 mm
17:20 5.1 °C 5.0 °C 984.0 hPa NNW 13.0 km/h 39.6 km/h 98% 0.5 mm
17:25 5.1 °C 5.0 °C 984.0 hPa NNW 14.3 km/h 37.0 km/h 98% 0.5 mm
17:27 5.1 °C 5.0 °C 985.0 hPa North 26.2 km/h 36.4 km/h 98% 0.8 mm
17:32 5.1 °C 5.0 °C 985.0 hPa North 14.0 km/h 53.6 km/h 98% 0.8 mm
17:33 5.1 °C 5.0 °C 985.0 hPa WNW 27.7 km/h 53.6 km/h 98% 0.8 mm
17:38 5.1 °C 5.0 °C 985.0 hPa NNW 15.4 km/h 53.6 km/h 98% 1.3 mm
17:39 4.2 °C 4.0 °C 985.0 hPa North 32.0 km/h 47.9 km/h 97% 1.3 mm
17:44 4.1 °C 4.0 °C 985.0 hPa NW 27.4 km/h 40.7 km/h 97% 1.5 mm
17:47 4.1 °C 4.0 °C 985.0 hPa NNW 16.6 km/h 40.7 km/h 98% 1.5 mm
17:49 4.2 °C 4.0 °C 985.0 hPa North 30.6 km/h 40.7 km/h 98% 1.5 mm
17:54 4.2 °C 4.0 °C 985.0 hPa North 28.0 km/h 48.9 km/h 97% 1.8 mm
17:55 4.2 °C 4.0 °C 985.0 hPa NW 17.2 km/h 48.9 km/h 97% 1.8 mm
18:00 4.3 °C 4.0 °C 986.0 hPa North 13.0 km/h 48.9 km/h 97% 2.3 mm
18:01 4.3 °C 4.0 °C 986.0 hPa North 14.8 km/h 48.9 km/h 97% 2.3 mm
18:06 4.3 °C 4.0 °C 986.0 hPa NNE 23.0 km/h 42.2 km/h 98% 2.5 mm
18:08 4.3 °C 4.0 °C 986.0 hPa NNW 28.5 km/h 42.2 km/h 98% 2.5 mm
18:12 4.4 °C 4.0 °C 987.0 hPa WNW 12.6 km/h 54.4 km/h 98% 2.3 mm
18:17 4.2 °C 4.0 °C 987.0 hPa North 32.3 km/h 54.4 km/h 97% 2.3 mm
18:21 3.8 °C 3.0 °C 987.0 hPa NNE 28.8 km/h 42.2 km/h 94% 2.3 mm
18:23 3.7 °C 3.0 °C 987.0 hPa NNW 32.0 km/h 42.2 km/h 94% 2.3 mm
18:28 3.7 °C 3.0 °C 986.0 hPa North 30.6 km/h 46.0 km/h 94% 2.3 mm
18:29 3.7 °C 3.0 °C 986.0 hPa North 12.6 km/h 46.0 km/h 94% 2.3 mm
18:34 3.9 °C 3.0 °C 986.0 hPa NNW 13.7 km/h 46.0 km/h 95% 2.3 mm
18:37 4.0 °C 3.0 °C 986.0 hPa NW 15.8 km/h 41.4 km/h 95% 1.8 mm
18:42 4.0 °C 3.0 °C 988.0 hPa WNW 25.6 km/h 37.8 km/h 95% 1.5 mm
18:47 3.8 °C 3.0 °C 988.0 hPa North 12.6 km/h 28.5 km/h 96% 1.5 mm
18:49 3.8 °C 3.0 °C 988.0 hPa North 12.2 km/h 25.6 km/h 97% 1.8 mm
18:54 3.8 °C 4.0 °C 988.0 hPa NNE 19.8 km/h 23.8 km/h 98% 1.5 mm
18:59 3.7 °C 4.0 °C 989.1 hPa WNW 6.4 km/h 23.8 km/h 98% 1.8 mm
19:05 3.6 °C 4.0 °C 989.1 hPa NNW 17.2 km/h 24.8 km/h 98% 1.8 mm
19:07 3.6 °C 4.0 °C 989.1 hPa NNW 17.7 km/h 28.0 km/h 98% 1.8 mm
19:13 3.6 °C 4.0 °C 989.1 hPa NW 19.8 km/h 39.6 km/h 98% 1.5 mm
19:16 3.6 °C 4.0 °C 989.1 hPa North 9.0 km/h 39.6 km/h 98% 1.5 mm
19:17 3.6 °C 4.0 °C 989.1 hPa North 20.6 km/h 39.6 km/h 98% 1.5 mm
19:23 3.6 °C 4.0 °C 989.1 hPa North 10.8 km/h 29.9 km/h 98% 1.3 mm
19:26 3.7 °C 4.0 °C 989.1 hPa North 14.0 km/h 29.9 km/h 98% 1.5 mm
19:27 3.7 °C 4.0 °C 989.1 hPa North 12.2 km/h 29.9 km/h 98% 1.5 mm
19:33 3.8 °C 4.0 °C 989.1 hPa NW 9.3 km/h 24.8 km/h 98% 1.8 mm
19:34 3.9 °C 4.0 °C 989.1 hPa NNW 8.7 km/h 24.8 km/h 98% 1.8 mm
19:39 4.0 °C 4.0 °C 989.1 hPa North 12.6 km/h 19.8 km/h 98% 2.3 mm
19:41 4.0 °C 4.0 °C 989.1 hPa North 13.0 km/h 19.8 km/h 98% 2.5 mm
19:46 4.2 °C 4.0 °C 989.1 hPa NNE 6.9 km/h 19.1 km/h 98% 2.5 mm
19:47 4.2 °C 4.0 °C 989.1 hPa West 9.0 km/h 19.1 km/h 98% 2.5 mm
19:52 4.4 °C 4.0 °C 989.1 hPa North 24.5 km/h 30.9 km/h 98% 2.3 mm
19:54 4.4 °C 4.0 °C 989.1 hPa NNW 16.9 km/h 34.6 km/h 98% 2.3 mm
19:59 4.5 °C 5.0 °C 990.1 hPa WNW 16.9 km/h 34.6 km/h 98% 1.5 mm
20:00 4.5 °C 5.0 °C 990.1 hPa NNW 15.8 km/h 34.6 km/h 98% 1.3 mm
20:05 4.4 °C 4.0 °C 990.1 hPa West 17.7 km/h 31.4 km/h 98% 1.5 mm
20:08 4.4 °C 4.0 °C 990.1 hPa NW 20.1 km/h 31.4 km/h 97% 1.5 mm
20:13 4.4 °C 4.0 °C 992.1 hPa NW 6.1 km/h 24.5 km/h 96% 1.5 mm
20:16 4.4 °C 4.0 °C 992.1 hPa NNW 16.6 km/h 24.5 km/h 96% 1.5 mm
20:23 4.4 °C 4.0 °C 992.1 hPa NNW 9.7 km/h 24.5 km/h 95% 1.3 mm
20:26 4.4 °C 4.0 °C 991.1 hPa NW 19.8 km/h 30.9 km/h 95% 1.3 mm
20:30 4.4 °C 4.0 °C 991.1 hPa North 23.3 km/h 30.9 km/h 95% 1.3 mm
20:35 4.4 °C 3.0 °C 991.1 hPa NW 14.0 km/h 30.9 km/h 93% 0.5 mm
20:38 4.4 °C 3.0 °C 991.1 hPa WNW 13.7 km/h 30.9 km/h 93% 0.5 mm
20:43 4.4 °C 3.0 °C 991.1 hPa North 13.7 km/h 30.9 km/h 92% 0.3 mm
20:46 4.4 °C 3.0 °C 991.1 hPa West 11.6 km/h 30.9 km/h 92% 0.3 mm
20:50 4.4 °C 3.0 °C 991.1 hPa NNW 12.6 km/h 24.8 km/h 91% 0.3 mm
20:55 4.4 °C 3.0 °C 991.1 hPa NNE 14.0 km/h 25.9 km/h 92% 0.3 mm
20:57 4.4 °C 3.0 °C 992.1 hPa WNW 13.0 km/h 25.9 km/h 91% 0.3 mm
20:59 4.4 °C 3.0 °C 992.1 hPa West 17.2 km/h 25.9 km/h 91% 0.3 mm
21:02 4.4 °C 3.0 °C 992.1 hPa North 11.9 km/h 25.6 km/h 91% 0.3 mm
21:06 4.4 °C 3.0 °C 992.1 hPa NNE 17.7 km/h 21.9 km/h 91% 0.0 mm
21:08 4.4 °C 3.0 °C 992.1 hPa NW 23.0 km/h 28.5 km/h 91% 0.0 mm
21:13 4.5 °C 3.0 °C 993.1 hPa West 10.5 km/h 28.5 km/h 90% 0.0 mm
21:14 4.5 °C 3.0 °C 993.1 hPa NNW 7.6 km/h 28.5 km/h 90% 0.0 mm
21:19 4.5 °C 3.0 °C 993.1 hPa NNW 15.4 km/h 27.7 km/h 90% 0.0 mm
21:23 4.5 °C 3.0 °C 993.1 hPa North 12.2 km/h 27.7 km/h 90% 0.0 mm
21:28 4.5 °C 3.0 °C 993.1 hPa WNW 25.9 km/h 27.7 km/h 89% 0.0 mm
21:33 4.4 °C 3.0 °C 993.1 hPa North 12.6 km/h 25.9 km/h 88% 0.0 mm
21:37 4.4 °C 3.0 °C 993.1 hPa NNW 16.6 km/h 25.9 km/h 88% 0.0 mm
21:42 4.4 °C 3.0 °C 993.1 hPa WNW 16.9 km/h 29.9 km/h 88% 0.0 mm
21:43 4.3 °C 3.0 °C 993.1 hPa North 10.1 km/h 29.9 km/h 88% 0.0 mm
21:48 4.3 °C 3.0 °C 993.1 hPa WNW 12.6 km/h 29.9 km/h 88% 0.0 mm
21:53 4.3 °C 3.0 °C 993.1 hPa North 14.0 km/h 24.8 km/h 88% 0.0 mm
21:56 4.2 °C 3.0 °C 993.1 hPa NE 9.3 km/h 17.7 km/h 88% 0.0 mm
21:57 4.2 °C 3.0 °C 993.1 hPa WNW 9.0 km/h 17.7 km/h 88% 0.0 mm
22:02 4.3 °C 3.0 °C 993.1 hPa NNW 8.7 km/h 20.9 km/h 88% 0.0 mm
22:03 4.3 °C 3.0 °C 993.1 hPa NE 13.7 km/h 20.9 km/h 88% 0.0 mm
22:05 4.3 °C 3.0 °C 993.1 hPa NW 16.3 km/h 20.9 km/h 88% 0.0 mm
22:10 4.3 °C 3.0 °C 993.1 hPa North 12.2 km/h 20.9 km/h 88% 0.0 mm
22:12 4.3 °C 3.0 °C 993.1 hPa North 6.1 km/h 17.2 km/h 88% 0.0 mm
22:14 4.3 °C 3.0 °C 993.1 hPa NW 6.4 km/h 17.2 km/h 88% 0.0 mm
22:19 4.3 °C 3.0 °C 993.1 hPa NNW 4.3 km/h 23.8 km/h 87% 0.0 mm
22:23 4.3 °C 3.0 °C 993.1 hPa NNE 8.7 km/h 23.8 km/h 87% 0.0 mm
22:26 4.4 °C 3.0 °C 993.1 hPa SSW 20.9 km/h 20.9 km/h 87% 0.0 mm
22:31 4.4 °C 3.0 °C 993.1 hPa NNE 9.3 km/h 20.9 km/h 87% 0.0 mm
22:35 4.4 °C 3.0 °C 993.1 hPa WNW 10.1 km/h 20.9 km/h 87% 0.0 mm
22:37 4.4 °C 3.0 °C 993.1 hPa WNW 11.6 km/h 20.6 km/h 87% 0.0 mm
22:41 4.4 °C 3.0 °C 994.1 hPa NW 5.0 km/h 20.6 km/h 87% 0.0 mm
22:43 4.4 °C 3.0 °C 994.1 hPa NNW 9.0 km/h 20.6 km/h 87% 0.0 mm
22:49 4.4 °C 2.0 °C 994.1 hPa North 9.3 km/h 16.6 km/h 86% 0.0 mm
22:51 4.4 °C 2.0 °C 994.1 hPa WNW 10.5 km/h 17.7 km/h 86% 0.0 mm
22:55 4.4 °C 2.0 °C 994.1 hPa North 12.6 km/h 23.3 km/h 86% 0.0 mm
22:57 4.4 °C 2.0 °C 994.1 hPa NNW 7.9 km/h 23.3 km/h 86% 0.0 mm
23:02 4.4 °C 2.0 °C 994.1 hPa NW 11.6 km/h 23.3 km/h 85% 0.0 mm
23:04 4.3 °C 2.0 °C 994.1 hPa WNW 6.1 km/h 19.5 km/h 85% 0.0 mm
23:06 4.3 °C 2.0 °C 994.1 hPa West 4.0 km/h 19.5 km/h 85% 0.0 mm
23:10 4.3 °C 2.0 °C 994.1 hPa NNE 12.2 km/h 16.9 km/h 85% 0.0 mm
23:14 4.3 °C 2.0 °C 995.1 hPa WNW 6.4 km/h 16.9 km/h 85% 0.0 mm
23:15 4.3 °C 2.0 °C 995.1 hPa WNW 10.1 km/h 14.0 km/h 85% 0.0 mm
23:21 4.2 °C 2.0 °C 995.1 hPa NNW 15.4 km/h 24.8 km/h 85% 0.0 mm
23:22 4.2 °C 2.0 °C 995.1 hPa WNW 12.6 km/h 24.8 km/h 85% 0.0 mm
23:25 4.2 °C 2.0 °C 995.1 hPa West 9.7 km/h 24.8 km/h 84% 0.0 mm
23:30 4.1 °C 2.0 °C 995.1 hPa NNE 15.1 km/h 17.7 km/h 84% 0.0 mm
23:35 4.1 °C 2.0 °C 995.1 hPa NNW 9.3 km/h 18.3 km/h 84% 0.0 mm
23:36 4.1 °C 2.0 °C 995.1 hPa NNW 6.4 km/h 18.3 km/h 84% 0.0 mm
23:41 4.0 °C 2.0 °C 995.1 hPa West 5.0 km/h 18.3 km/h 84% 0.0 mm
23:46 4.0 °C 2.0 °C 995.1 hPa NNW 1.8 km/h 16.9 km/h 85% 0.0 mm
23:48 4.0 °C 2.0 °C 995.1 hPa West 5.5 km/h 16.9 km/h 85% 0.0 mm
23:53 4.0 °C 2.0 °C 995.1 hPa WNW 4.7 km/h 16.9 km/h 85% 0.0 mm
23:58 4.0 °C 2.0 °C 994.1 hPa WNW 12.2 km/h 13.0 km/h 85% 0.0 mm
Données Historique de Météo Turbie

Mise a jour : 24/05/2018 10:22:14
Généré par Cumulus 1.9.4 (1099)